createdAt,value
2023-01-13T00:00:05.670Z,-1.92
2023-01-13T00:03:07.582Z,-1.71
2023-01-13T00:06:13.848Z,-1.72
2023-01-13T00:09:15.763Z,-1.56
2023-01-13T00:12:17.625Z,-2.01
2023-01-13T00:15:19.400Z,-2.20
2023-01-13T00:18:21.200Z,-2.23
2023-01-13T00:21:25.069Z,-2.34
2023-01-13T00:24:27.278Z,-2.03
2023-01-13T00:27:29.427Z,-1.79
2023-01-13T00:30:31.241Z,-1.77
2023-01-13T00:33:35.230Z,-1.48
2023-01-13T00:36:37.165Z,-1.31
2023-01-13T00:39:39.093Z,-1.22
2023-01-13T00:42:59.772Z,-0.79
2023-01-13T00:46:02.697Z,-0.57
2023-01-13T00:49:04.598Z,-0.96
2023-01-13T00:52:06.721Z,-1.12
2023-01-13T00:55:08.953Z,-0.64
2023-01-13T00:58:10.756Z,-0.60
2023-01-13T01:01:17.592Z,-0.92
2023-01-13T01:04:19.453Z,-1.32
2023-01-13T01:07:21.315Z,-0.89
2023-01-13T01:10:23.135Z,-1.28
2023-01-13T01:13:24.926Z,-1.27
2023-01-13T01:16:29.387Z,-1.49
2023-01-13T01:19:32.271Z,-1.48
2023-01-13T01:22:34.082Z,-1.28
2023-01-13T01:25:35.879Z,-1.19
2023-01-13T01:28:37.679Z,-1.05
2023-01-13T01:31:39.522Z,-0.78
2023-01-13T01:34:42.348Z,-0.83
2023-01-13T01:37:44.171Z,-0.32
2023-01-13T01:40:45.956Z,-0.56
2023-01-13T01:44:06.083Z,-0.22
2023-01-13T01:47:14.092Z,-0.70
2023-01-13T01:50:17.392Z,-0.42
2023-01-13T01:53:24.410Z,-0.77
2023-01-13T01:56:26.348Z,-0.64
2023-01-13T01:59:32.232Z,-0.90
2023-01-13T02:02:34.507Z,-0.86
2023-01-13T02:05:36.791Z,-0.27
2023-01-13T02:08:41.436Z,-0.25
2023-01-13T02:12:01.963Z,-0.11
2023-01-13T02:15:11.615Z,0.08
2023-01-13T02:18:22.431Z,-0.40
2023-01-13T02:22:01.851Z,-0.56
2023-01-13T02:25:35.821Z,-0.71
2023-01-13T02:29:27.071Z,-0.03
2023-01-13T02:33:03.143Z,-0.40
2023-01-13T02:36:11.071Z,-0.39
2023-01-13T02:39:23.784Z,-0.54
2023-01-13T02:42:53.741Z,-0.46
2023-01-13T02:46:20.765Z,0.04
2023-01-13T02:49:40.466Z,0.30
2023-01-13T02:52:55.619Z,0.17
2023-01-13T02:55:59.048Z,0.30
2023-01-13T02:59:02.131Z,-0.50
2023-01-13T03:02:04.845Z,-0.70
2023-01-13T03:05:07.112Z,-0.88
2023-01-13T03:08:17.936Z,-0.91
2023-01-13T03:11:20.803Z,-0.74
2023-01-13T03:14:31.647Z,-0.94
2023-01-13T03:17:50.000Z,-0.92
2023-01-13T03:21:06.390Z,-0.84
2023-01-13T03:24:20.055Z,-0.88
2023-01-13T03:27:40.622Z,-0.82
2023-01-13T03:30:50.239Z,-1.00
2023-01-13T03:33:59.931Z,-1.14
2023-01-13T03:37:05.850Z,-1.13
2023-01-13T03:40:30.025Z,-0.95
2023-01-13T03:44:00.864Z,-0.85
2023-01-13T03:47:30.742Z,-1.04
2023-01-13T03:50:40.700Z,-1.21
2023-01-13T03:53:57.436Z,-1.16
2023-01-13T03:57:07.412Z,-1.11
2023-01-13T04:00:12.574Z,-1.20
2023-01-13T04:03:22.327Z,-1.12
2023-01-13T04:06:45.505Z,-1.39
2023-01-13T04:09:56.954Z,-1.38
2023-01-13T04:13:13.259Z,-1.46
2023-01-13T04:16:15.504Z,-1.55
2023-01-13T04:19:17.177Z,-1.70
2023-01-13T04:22:18.936Z,-1.66
2023-01-13T04:25:20.598Z,-1.62
2023-01-13T04:28:23.336Z,-1.64
2023-01-13T04:31:25.153Z,-1.63
2023-01-13T04:34:28.406Z,-1.72
2023-01-13T04:37:30.262Z,-1.51
2023-01-13T04:40:33.020Z,-1.56
2023-01-13T04:43:34.755Z,-1.64
2023-01-13T04:46:36.554Z,-1.75
2023-01-13T04:49:38.264Z,-1.73
2023-01-13T04:52:40.036Z,-1.80
2023-01-13T04:55:41.845Z,-1.52
2023-01-13T04:58:43.540Z,-1.27
2023-01-13T05:01:45.435Z,-1.28
2023-01-13T05:04:47.903Z,-1.41
2023-01-13T05:07:49.651Z,-1.24
2023-01-13T05:10:51.440Z,-1.49
2023-01-13T05:14:11.656Z,-1.54
2023-01-13T05:17:20.019Z,-1.41
2023-01-13T05:20:22.861Z,-1.76
2023-01-13T05:24:00.157Z,-1.52
2023-01-13T05:27:01.909Z,-1.74
2023-01-13T05:30:04.357Z,-1.82
2023-01-13T05:33:06.030Z,-1.55
2023-01-13T05:36:08.254Z,-1.62
2023-01-13T05:39:09.969Z,-1.74
2023-01-13T05:42:30.309Z,-1.64
2023-01-13T05:45:32.273Z,-1.85
2023-01-13T05:48:39.813Z,-1.77
2023-01-13T05:51:41.428Z,-1.89
2023-01-13T05:54:49.085Z,-1.76
2023-01-13T05:57:50.796Z,-1.81
2023-01-13T06:00:53.148Z,-1.89
2023-01-13T06:03:54.803Z,-2.00
2023-01-13T06:06:56.526Z,-1.97
2023-01-13T06:09:58.261Z,-1.89
2023-01-13T06:13:01.249Z,-1.96
2023-01-13T06:16:05.112Z,-1.95
2023-01-13T06:19:09.109Z,-1.87
2023-01-13T06:22:21.963Z,-2.04
2023-01-13T06:26:02.249Z,-2.01
2023-01-13T06:29:04.531Z,-2.07
2023-01-13T06:32:11.433Z,-1.96
2023-01-13T06:35:17.344Z,-1.98
2023-01-13T06:38:21.095Z,-1.94
2023-01-13T06:41:43.684Z,-1.81
2023-01-13T06:44:46.369Z,-2.00
2023-01-13T06:47:48.142Z,-1.91
2023-01-13T06:50:49.963Z,-1.98
2023-01-13T06:53:51.707Z,-1.94
2023-01-13T06:56:53.407Z,-1.86
2023-01-13T06:59:55.339Z,-1.80
2023-01-13T07:03:10.321Z,-1.82
2023-01-13T07:06:12.023Z,-1.89
2023-01-13T07:09:13.727Z,-1.66
2023-01-13T07:12:15.474Z,-1.62
2023-01-13T07:15:19.724Z,-1.59
2023-01-13T07:18:21.820Z,-1.57
2023-01-13T07:21:23.668Z,-1.57
2023-01-13T07:24:25.378Z,-1.13
2023-01-13T07:27:27.111Z,-1.13
2023-01-13T07:30:28.789Z,-1.25
2023-01-13T07:33:33.888Z,-1.12
2023-01-13T07:36:36.237Z,-1.13
2023-01-13T07:39:38.018Z,-1.09
2023-01-13T07:42:59.427Z,-1.18
2023-01-13T07:46:04.906Z,-1.21
2023-01-13T07:49:07.551Z,-1.01
2023-01-13T07:52:11.306Z,-1.06
2023-01-13T07:55:14.108Z,-0.87
2023-01-13T07:58:16.928Z,-0.80
2023-01-13T08:01:19.543Z,-0.88
2023-01-13T08:04:21.433Z,-0.97
2023-01-13T08:07:24.239Z,-0.87
2023-01-13T08:10:28.096Z,-0.85
2023-01-13T08:13:30.325Z,-0.86
2023-01-13T08:16:34.522Z,-0.61
2023-01-13T08:19:36.298Z,-0.48
2023-01-13T08:22:38.479Z,-0.39
2023-01-13T08:25:40.472Z,-0.47
2023-01-13T08:28:42.210Z,-0.34
2023-01-13T08:31:43.985Z,-0.41
2023-01-13T08:34:45.673Z,-0.09
2023-01-13T08:37:48.172Z,-0.41
2023-01-13T08:40:51.991Z,-0.23
2023-01-13T08:43:53.778Z,0.09
2023-01-13T08:46:56.495Z,-0.19
2023-01-13T08:49:58.206Z,0.06
2023-01-13T08:53:00.444Z,0.32
2023-01-13T08:56:10.989Z,0.89
2023-01-13T08:59:14.654Z,0.19
2023-01-13T09:02:19.425Z,0.38
2023-01-13T09:05:21.388Z,0.46
2023-01-13T09:08:23.095Z,0.94
2023-01-13T09:11:52.879Z,0.86
2023-01-13T09:14:54.653Z,1.14
2023-01-13T09:17:56.303Z,0.84
2023-01-13T09:20:59.133Z,1.27
2023-01-13T09:24:00.874Z,1.14
2023-01-13T09:27:02.635Z,1.40
2023-01-13T09:30:05.426Z,1.52
2023-01-13T09:33:25.409Z,1.72
2023-01-13T09:36:27.133Z,1.87
2023-01-13T09:39:28.988Z,1.34
2023-01-13T09:43:03.648Z,1.56
2023-01-13T09:46:47.633Z,1.44
2023-01-13T09:49:49.529Z,1.73
2023-01-13T09:52:52.253Z,1.59
2023-01-13T09:55:55.095Z,1.67
2023-01-13T09:58:57.766Z,1.69
2023-01-13T10:02:13.926Z,1.32
2023-01-13T10:05:43.132Z,1.52
2023-01-13T10:08:47.166Z,2.17
2023-01-13T10:12:09.560Z,2.13
2023-01-13T10:15:19.209Z,2.09
2023-01-13T10:18:39.777Z,2.11
2023-01-13T10:22:09.365Z,1.97
2023-01-13T10:25:31.713Z,2.06
2023-01-13T10:28:33.399Z,1.91
2023-01-13T10:31:35.203Z,1.94
2023-01-13T10:35:05.724Z,1.95
2023-01-13T10:38:17.113Z,2.06
2023-01-13T10:41:24.742Z,2.41
2023-01-13T10:44:27.527Z,2.47
2023-01-13T10:47:31.256Z,2.40
2023-01-13T10:50:36.840Z,2.77
2023-01-13T10:53:47.334Z,2.48
2023-01-13T10:56:50.269Z,2.57
2023-01-13T10:59:53.217Z,2.89
2023-01-13T11:03:13.867Z,2.83
2023-01-13T11:06:28.794Z,2.84
2023-01-13T11:09:32.835Z,2.49
2023-01-13T11:12:44.387Z,2.21
2023-01-13T11:16:04.196Z,2.18
2023-01-13T11:19:12.473Z,2.37
2023-01-13T11:22:23.510Z,2.43
2023-01-13T11:25:35.346Z,2.59
2023-01-13T11:29:00.571Z,2.74
2023-01-13T11:32:35.597Z,2.31
2023-01-13T11:36:11.141Z,2.35
2023-01-13T11:39:26.429Z,3.02
2023-01-13T11:43:04.953Z,3.23
2023-01-13T11:46:09.888Z,2.80
2023-01-13T11:49:23.895Z,3.03
2023-01-13T11:52:45.048Z,3.17
2023-01-13T11:56:04.918Z,3.15
2023-01-13T11:59:25.687Z,3.39
2023-01-13T12:02:27.419Z,3.32
2023-01-13T12:05:46.203Z,3.55
2023-01-13T12:08:59.627Z,3.15
2023-01-13T12:12:22.874Z,3.12
2023-01-13T12:15:35.960Z,3.22
2023-01-13T12:19:07.521Z,3.70
2023-01-13T12:22:31.915Z,3.31
2023-01-13T12:25:41.966Z,3.27
2023-01-13T12:28:50.155Z,3.23
2023-01-13T12:31:52.621Z,3.48
2023-01-13T12:35:18.809Z,3.49
2023-01-13T12:38:34.432Z,3.46
2023-01-13T12:42:29.902Z,3.32
2023-01-13T12:45:33.890Z,3.48
2023-01-13T12:48:57.061Z,3.72
2023-01-13T12:52:13.754Z,3.59
2023-01-13T12:55:26.903Z,3.12
2023-01-13T12:58:28.996Z,3.12
2023-01-13T13:01:37.708Z,3.40
2023-01-13T13:04:42.534Z,3.22
2023-01-13T13:07:53.524Z,3.29
2023-01-13T13:11:01.684Z,3.23
2023-01-13T13:14:07.422Z,3.17
2023-01-13T13:17:25.395Z,3.15
2023-01-13T13:20:46.096Z,2.99
2023-01-13T13:24:04.071Z,2.81
2023-01-13T13:27:32.201Z,3.07
2023-01-13T13:30:36.988Z,2.94
2023-01-13T13:33:56.065Z,3.12
2023-01-13T13:37:16.707Z,3.36
2023-01-13T13:40:36.980Z,3.28
2023-01-13T13:44:04.558Z,3.38
2023-01-13T13:47:07.468Z,3.67
2023-01-13T13:50:15.384Z,3.82
2023-01-13T13:53:19.802Z,3.82
2023-01-13T13:56:27.917Z,3.58
2023-01-13T13:59:30.936Z,3.58
2023-01-13T14:02:37.503Z,3.50
2023-01-13T14:05:39.276Z,3.47
2023-01-13T14:08:46.612Z,3.70
2023-01-13T14:11:59.290Z,3.59
2023-01-13T14:15:01.324Z,3.81
2023-01-13T14:18:06.057Z,4.03
2023-01-13T14:21:22.312Z,3.77
2023-01-13T14:24:25.134Z,3.99
2023-01-13T14:27:28.719Z,4.07
2023-01-13T14:30:32.172Z,4.11
2023-01-13T14:33:46.953Z,3.99
2023-01-13T14:36:51.195Z,4.24
2023-01-13T14:39:52.917Z,4.15
2023-01-13T14:43:02.398Z,4.35
2023-01-13T14:46:04.285Z,4.51
2023-01-13T14:49:16.344Z,4.34
2023-01-13T14:52:21.898Z,3.90
2023-01-13T14:55:34.417Z,3.74
2023-01-13T14:58:36.137Z,3.42
2023-01-13T15:01:41.827Z,3.46
2023-01-13T15:04:43.537Z,3.81
2023-01-13T15:07:51.313Z,4.20
2023-01-13T15:11:01.825Z,4.03
2023-01-13T15:14:10.741Z,3.56
2023-01-13T15:17:17.508Z,3.30
2023-01-13T15:20:21.757Z,3.55
2023-01-13T15:23:23.661Z,3.85
2023-01-13T15:26:28.309Z,3.86
2023-01-13T15:29:30.147Z,4.12
2023-01-13T15:32:31.854Z,3.96
2023-01-13T15:35:33.802Z,3.66
2023-01-13T15:38:35.473Z,4.06
2023-01-13T15:41:55.772Z,3.87
2023-01-13T15:45:17.076Z,3.85
2023-01-13T15:48:21.463Z,3.79
2023-01-13T15:51:23.245Z,3.84
2023-01-13T15:54:25.043Z,4.16
2023-01-13T15:57:34.193Z,4.31
2023-01-13T16:00:35.978Z,4.25
2023-01-13T16:03:37.701Z,4.15
2023-01-13T16:06:39.459Z,4.28
2023-01-13T16:09:41.142Z,3.92
2023-01-13T16:12:42.916Z,4.16
2023-01-13T16:15:49.782Z,4.28
2023-01-13T16:18:52.822Z,4.38
2023-01-13T16:21:55.254Z,4.41
2023-01-13T16:24:57.092Z,4.46
2023-01-13T16:27:58.833Z,4.51
2023-01-13T16:31:00.544Z,4.53
2023-01-13T16:34:04.052Z,4.41
2023-01-13T16:37:19.078Z,4.45
2023-01-13T16:40:23.919Z,4.48
2023-01-13T16:43:25.735Z,4.50
2023-01-13T16:46:29.934Z,4.54
2023-01-13T16:49:31.761Z,4.54
2023-01-13T16:52:33.447Z,4.49
2023-01-13T16:55:36.907Z,4.30
2023-01-13T16:58:38.695Z,3.82
2023-01-13T17:01:42.646Z,3.77
2023-01-13T17:04:44.852Z,3.92
2023-01-13T17:07:47.974Z,3.80
2023-01-13T17:10:50.849Z,3.48
2023-01-13T17:13:52.574Z,3.24
2023-01-13T17:16:58.474Z,2.89
2023-01-13T17:20:00.296Z,2.77
2023-01-13T17:23:02.100Z,3.18
2023-01-13T17:26:05.241Z,3.37
2023-01-13T17:29:11.770Z,3.24
2023-01-13T17:32:18.818Z,3.30
2023-01-13T17:35:24.841Z,3.04
2023-01-13T17:38:29.397Z,3.44
2023-01-13T17:41:31.607Z,3.59
2023-01-13T17:44:33.381Z,3.70
2023-01-13T17:47:35.229Z,3.75
2023-01-13T17:50:36.912Z,3.75
2023-01-13T17:53:42.074Z,3.72
2023-01-13T17:56:44.108Z,3.71
2023-01-13T17:59:48.262Z,3.59
2023-01-13T18:02:50.223Z,3.48
2023-01-13T18:05:51.946Z,3.30
2023-01-13T18:08:54.514Z,3.39
2023-01-13T18:11:56.652Z,3.14
2023-01-13T18:14:58.517Z,3.16
2023-01-13T18:18:00.968Z,3.10
2023-01-13T18:21:22.942Z,3.40
2023-01-13T18:24:43.574Z,3.60
2023-01-13T18:27:45.950Z,3.77
2023-01-13T18:30:53.747Z,3.56
2023-01-13T18:33:56.346Z,2.94
2023-01-13T18:37:00.681Z,2.62
2023-01-13T18:40:03.736Z,2.67
2023-01-13T18:43:05.720Z,2.71
2023-01-13T18:46:08.697Z,2.96
2023-01-13T18:49:10.945Z,2.75
2023-01-13T18:52:13.418Z,2.74
2023-01-13T18:55:15.439Z,2.62
2023-01-13T18:58:17.887Z,2.69
2023-01-13T19:01:22.715Z,2.61
2023-01-13T19:04:24.978Z,2.56
2023-01-13T19:07:29.431Z,2.52
2023-01-13T19:10:32.919Z,2.56
2023-01-13T19:13:35.867Z,2.54
2023-01-13T19:16:37.780Z,2.58
2023-01-13T19:19:44.142Z,2.65
2023-01-13T19:22:53.813Z,2.72
2023-01-13T19:25:59.943Z,2.94
2023-01-13T19:29:02.715Z,3.09
2023-01-13T19:32:04.652Z,3.21
2023-01-13T19:35:08.956Z,3.61
2023-01-13T19:38:11.322Z,3.74
2023-01-13T19:41:33.525Z,3.79
2023-01-13T19:44:53.983Z,3.45
2023-01-13T19:47:57.517Z,3.37
2023-01-13T19:51:03.161Z,3.82
2023-01-13T19:54:05.327Z,3.97
2023-01-13T19:57:07.477Z,3.95
2023-01-13T20:00:11.924Z,4.07
2023-01-13T20:03:20.925Z,4.10
2023-01-13T20:06:23.426Z,3.95
2023-01-13T20:09:25.898Z,3.96
2023-01-13T20:12:28.968Z,4.16
2023-01-13T20:15:31.884Z,4.24
2023-01-13T20:18:36.764Z,4.20
2023-01-13T20:21:39.953Z,4.19
2023-01-13T20:24:44.138Z,4.23
2023-01-13T20:27:48.441Z,4.05
2023-01-13T20:30:51.081Z,3.79
2023-01-13T20:33:53.417Z,3.71
2023-01-13T20:36:55.757Z,3.80
2023-01-13T20:40:02.487Z,3.32
2023-01-13T20:43:05.458Z,3.42
2023-01-13T20:46:07.309Z,3.66
2023-01-13T20:49:11.561Z,3.81
2023-01-13T20:52:14.692Z,3.94
2023-01-13T20:55:16.643Z,3.75
2023-01-13T20:58:18.899Z,3.94
2023-01-13T21:01:21.305Z,3.68
2023-01-13T21:04:23.729Z,3.73
2023-01-13T21:07:25.887Z,4.02
2023-01-13T21:10:27.679Z,4.08
2023-01-13T21:13:48.178Z,4.28
2023-01-13T21:16:51.550Z,4.42
2023-01-13T21:19:53.422Z,4.51
2023-01-13T21:22:55.127Z,4.38
2023-01-13T21:25:56.817Z,4.39
2023-01-13T21:29:00.071Z,4.52
2023-01-13T21:32:01.821Z,4.34
2023-01-13T21:35:03.709Z,4.41
2023-01-13T21:38:05.537Z,4.25
2023-01-13T21:41:09.021Z,4.41
2023-01-13T21:44:38.483Z,3.83
2023-01-13T21:47:49.031Z,4.17
2023-01-13T21:50:50.889Z,4.03
2023-01-13T21:53:53.547Z,4.02
2023-01-13T21:56:55.255Z,4.06
2023-01-13T21:59:56.996Z,4.16
2023-01-13T22:03:00.125Z,3.42
2023-01-13T22:06:01.924Z,3.22
2023-01-13T22:09:04.029Z,3.15
2023-01-13T22:12:05.894Z,3.49
2023-01-13T22:15:08.651Z,3.12
2023-01-13T22:18:10.327Z,3.51
2023-01-13T22:21:12.046Z,3.52
2023-01-13T22:24:13.917Z,3.46
2023-01-13T22:27:20.987Z,3.20
2023-01-13T22:30:22.786Z,3.61
2023-01-13T22:33:25.531Z,4.03
2023-01-13T22:36:27.250Z,4.06
2023-01-13T22:39:28.999Z,4.03
2023-01-13T22:42:30.660Z,4.03
2023-01-13T22:45:32.419Z,4.06
2023-01-13T22:48:35.063Z,3.51
2023-01-13T22:51:36.867Z,3.82
2023-01-13T22:54:38.514Z,4.02
2023-01-13T22:57:47.692Z,3.64
2023-01-13T23:00:49.824Z,3.74
2023-01-13T23:03:51.775Z,3.19
2023-01-13T23:06:53.540Z,3.07
2023-01-13T23:09:55.278Z,2.98
2023-01-13T23:12:57.002Z,3.24
2023-01-13T23:16:03.589Z,3.01
2023-01-13T23:19:07.104Z,2.84
2023-01-13T23:22:08.888Z,2.94
2023-01-13T23:25:11.241Z,2.91
2023-01-13T23:28:12.998Z,3.09
2023-01-13T23:31:17.990Z,3.03
2023-01-13T23:34:19.671Z,2.76
2023-01-13T23:37:21.385Z,2.78
2023-01-13T23:40:23.099Z,2.79
2023-01-13T23:43:28.926Z,2.74
2023-01-13T23:46:33.075Z,2.88
2023-01-13T23:49:34.923Z,2.77
2023-01-13T23:52:36.696Z,2.83
2023-01-13T23:55:38.388Z,3.02
2023-01-13T23:58:41.436Z,3.04
